• Join FlightAware (Why Join?)
  • Login
  • US Flag 
02:14AM EDT


 

Airport Tracker/Info


-or-


 

Live Flight TrackerFlight Track Log ✈ DAL268 ✈ 23-Jun-2013 ✈ KSFO - KJFK

Flight Track Log - Related Links

Times and Time Zones

All times are in EDT time to prevent confusion due to time zone crossing. See the DAL268 flight status page for this flight to view local times or setup timezone preferences in your user account.

Time Position Orientation Groundspeed Altitude Reporting Facility
EDT Latitude Longitude Course Direction KTS MPH feet Rate Location/Type
02:26PM 37.6100 -122.3840 191° South 25 29  Level FlightAware
02:26PM 37.6090 -122.3840 180° South 29 33 60 Level FlightAware
02:28PM 37.6080 -122.3850 38° Northeast 15 17 60 Level FlightAware
02:29PM 37.8083 -122.1750 38° Northeast  Level FlightAware Approximate
02:29PM 37.6060 -122.3830 142° Southeast 28 32  Level FlightAware
02:29PM 37.6050 -122.3790 108° East 28 32 180 Level FlightAware
02:30PM 37.6060 -122.3810 302° West 23 26 180 Level FlightAware
02:30PM 37.6070 -122.3810 360° North 12 14 240 Level FlightAware
02:32PM 37.6090 -122.3790 38° Northeast 78 90 300 Level FlightAware
02:32PM 37.6308 -122.3650 27° Northeast 174 200 600 1,080 Climbing FlightAware ADS-B
02:32PM 37.6355 -122.3610 34° Northeast 178 205 800 2,160 Climbing FlightAware ADS-B
02:32PM 37.6433 -122.3510 45° Northeast 191 220 1,300 2,340 Climbing FlightAware ADS-B
02:33PM 37.6502 -122.3420 46° Northeast 201 231 1,700 1,500 Climbing FlightAware ADS-B
02:33PM 37.6616 -122.3260 48° Northeast 229 264 2,000 1,680 Climbing FlightAware ADS-B
02:33PM 37.6726 -122.3110 47° Northeast 237 273 2,600 2,100 Climbing FlightAware ADS-B
02:33PM 37.6843 -122.2940 49° Northeast 249 287 3,100 1,920 Climbing FlightAware ADS-B
02:34PM 37.6965 -122.2770 48° Northeast 271 312 3,600 2,700 Climbing FlightAware ADS-B
02:34PM 37.7138 -122.2520 49° Northeast 276 318 4,700 3,060 Climbing FlightAware ADS-B
02:34PM 37.7309 -122.2320 43° Northeast 275 316 5,600 2,700 Climbing FlightAware ADS-B
02:35PM 37.7447 -122.2180 39° Northeast 280 322 6,200 2,880 Climbing FlightAware ADS-B
02:35PM 37.7629 -122.2000 38° Northeast 283 326 7,100 3,000 Climbing FlightAware ADS-B
02:35PM 37.7789 -122.1850 37° Northeast 289 333 7,800 2,700 Climbing FlightAware ADS-B
02:35PM 37.7998 -122.1650 37° Northeast 294 338 8,700 2,700 Climbing FlightAware ADS-B
02:36PM 37.8164 -122.1490 37° Northeast 298 343 9,400 2,640 Climbing FlightAware ADS-B
02:36PM 37.8504 -122.1170 37° Northeast 309 356 10,700 1,740 Climbing FlightAware ADS-B
02:37PM 37.8902 -122.0800 36° Northeast 351 404 11,200 1,500 Climbing FlightAware ADS-B
02:37PM 37.9335 -122.0390 37° Northeast 368 423 12,300 2,100 Climbing FlightAware ADS-B
02:38PM 37.9773 -121.9980 36° Northeast 377 434 13,500 2,220 Climbing FlightAware ADS-B
02:38PM 38.0226 -121.9550 37° Northeast 389 448 14,700 2,160 Climbing FlightAware ADS-B
02:39PM 38.1020 -121.8790 37° Northeast 403 464 16,600 2,100 Climbing FlightAware
02:40PM 38.1610 -121.8230 37° Northeast 409 471 18,000 1,860 Climbing FlightAware
02:41PM 38.2330 -121.7540 37° Northeast 419 482 19,300 1,680 Climbing FlightAware
02:41PM 38.2830 -121.7060 37° Northeast 426 490 20,200 1,680 Climbing FlightAware
02:41PM 38.3113 -121.6790 37° Northeast 428 493 20,700 1,620 Climbing FlightAware ADS-B
02:42PM 38.3825 -121.6100 37° Northeast 438 504 21,900 1,620 Climbing FlightAware ADS-B
02:43PM 38.4710 -121.5060 43° Northeast 450 518 23,500 1,440 Climbing FlightAware
02:44PM 38.5240 -121.4150 53° Northeast 458 527 24,400 1,440 Climbing FlightAware
02:45PM 38.5760 -121.3240 54° Northeast 457 526 25,600 1,560 Climbing FlightAware
02:45PM 38.6108 -121.2650 53° Northeast 461 531 26,200 1,320 Climbing FlightAware ADS-B
02:46PM 38.6522 -121.1930 54° Northeast 466 536 26,900 1,200 Climbing FlightAware ADS-B
02:47PM 38.7330 -121.0540 53° Northeast 474 545 28,100 1,020 Climbing FlightAware
02:47PM 38.7820 -120.9690 53° Northeast 482 555 28,700 1,020 Climbing FlightAware
02:48PM 38.8490 -120.8520 54° Northeast 485 558 29,700 1,140 Climbing FlightAware
02:49PM 38.9010 -120.7620 53° Northeast 488 562 30,400 900 Climbing FlightAware
02:50PM 38.9630 -120.6560 53° Northeast 496 571 31,000 1,080 Climbing FlightAware
02:50PM 39.0080 -120.5780 53° Northeast 491 565 31,900 1,440 Climbing FlightAware
02:51PM 39.0730 -120.4660 53° Northeast 488 562 33,000 1,320 Climbing FlightAware
02:52PM 39.1300 -120.3650 54° Northeast 486 559 33,900 1,380 Climbing FlightAware
02:52PM 39.1810 -120.2760 54° Northeast 477 549 34,900 780 Climbing FlightAware
02:53PM 39.2440 -120.1660 53° Northeast 491 565 35,000 60 Climbing FlightAware
02:54PM 39.2970 -120.0720 54° Northeast 491 565 35,000  Level FlightAware
02:54PM 39.3560 -119.9680 54° Northeast 496 571 35,000  Level FlightAware
02:55PM 39.4110 -119.8700 54° Northeast 495 570 35,000  Level FlightAware
02:56PM 39.4630 -119.7770 54° Northeast 494 568 35,000  Level FlightAware
02:56PM 39.5230 -119.6700 54° Northeast 494 568 35,000  Level FlightAware
02:57PM 39.5820 -119.5650 54° Northeast 494 568 35,000  Level FlightAware
02:58PM 39.6250 -119.4710 59° Northeast 491 565 35,000  Level FlightAware
02:58PM 39.6560 -119.3950 62° Northeast 491 565 35,000  Level FlightAware
02:59PM 39.7020 -119.2810 62° Northeast 490 564 35,000  Level FlightAware
03:00PM 39.7500 -119.1680 61° Northeast 491 565 35,000  Level FlightAware
03:00PM 39.7960 -119.0600 61° Northeast 489 563 35,000  Level FlightAware
03:01PM 39.8430 -118.9500 61° Northeast 489 563 35,000  Level FlightAware
03:02PM 39.8720 -118.8800 62° Northeast 488 562 35,000  Level FlightAware
03:02PM 39.9190 -118.7710 61° Northeast 486 559 35,000  Level FlightAware
03:03PM 39.9610 -118.6690 62° Northeast 483 556 35,000  Level FlightAware
03:04PM 40.0060 -118.5620 61° Northeast 484 557 35,000  Level FlightAware
03:04PM 40.0510 -118.4530 62° Northeast 482 555 35,000  Level FlightAware
03:05PM 40.0970 -118.3370 63° Northeast 481 554 35,000  Level FlightAware
03:06PM 40.1340 -118.2440 62° Northeast 481 554 35,000  Level FlightAware
03:06PM 40.1780 -118.1340 62° Northeast 481 554 35,000  Level FlightAware
03:07PM 40.2110 -118.0530 62° Northeast 484 557 35,000  Level FlightAware
03:08PM 40.2530 -117.9480 62° Northeast 486 559 35,000  Level FlightAware
03:08PM 40.2870 -117.8620 63° Northeast 486 559 35,000  Level FlightAware
03:09PM 40.3200 -117.7810 62° Northeast 486 559 35,000  Level FlightAware
03:10PM 40.3600 -117.6830 62° Northeast 486 559 35,000  Level FlightAware
03:10PM 40.3950 -117.5970 62° Northeast 486 559 35,000  Level FlightAware
03:11PM 40.4390 -117.4860 62° Northeast 486 559 35,000  Level FlightAware
03:12PM 40.4700 -117.4110 61° Northeast 486 559 35,000  Level FlightAware
03:13PM 40.5150 -117.3000 62° Northeast 486 559 35,000  Level FlightAware
03:13PM 40.5470 -117.2200 62° Northeast 486 559 35,000  Level FlightAware
03:14PM 40.5880 -117.1170 62° Northeast 486 559 35,000  Level FlightAware
03:15PM 40.6210 -117.0370 61° Northeast 486 559 35,000  Level FlightAware
03:15PM 40.6630 -116.9330 62° Northeast 486 559 35,000  Level FlightAware
03:16PM 40.6980 -116.8460 62° Northeast 486 559 35,000  Level FlightAware
03:17PM 40.7400 -116.7410 62° Northeast 486 559 35,000  Level FlightAware
03:18PM 40.7920 -116.6120 62° Northeast 486 559 35,000  Level FlightAware
03:20PM 40.9326 -115.9680 74° East 478 550 35,000  Level FlightAware ADS-B
03:21PM 40.9731 -115.8350 68° East 478 550 35,000  Level FlightAware ADS-B
03:21PM 41.0086 -115.7170 68° East 478 550 35,000  Level FlightAware ADS-B
03:22PM 41.0365 -115.6240 68° East 476 548 35,000  Level FlightAware ADS-B
03:23PM 41.0616 -115.5410 68° East 475 547 35,000  Level FlightAware ADS-B
03:24PM 41.1201 -115.3450 68° East 476 548 35,000  Level FlightAware ADS-B
03:24PM 41.1441 -115.2630 69° East 475 547 35,000  Level FlightAware ADS-B
03:25PM 41.1720 -115.1690 68° East 476 548 35,000  Level FlightAware ADS-B
03:25PM 41.1960 -115.0880 68° East 475 547 35,000  Level FlightAware ADS-B
03:26PM 41.2203 -115.0050 69° East 475 547 35,000  Level FlightAware ADS-B
03:26PM 41.2444 -114.9230 69° East 475 547 35,000  Level FlightAware ADS-B
03:27PM 41.2682 -114.8410 69° East 475 547 35,000  Level FlightAware ADS-B
03:27PM 41.2923 -114.7580 69° East 476 548 35,000  Level FlightAware ADS-B
03:28PM 41.3163 -114.6750 69° East 476 548 35,000  Level FlightAware ADS-B
03:28PM 41.3418 -114.5870 69° East 477 549 35,000  Level FlightAware ADS-B
03:29PM 41.3862 -114.4330 69° East 477 549 35,000  Level FlightAware ADS-B
03:30PM 41.4111 -114.3460 69° East 477 549 35,000  Level FlightAware ADS-B
03:30PM 41.4348 -114.2620 69° East 477 549 35,000  Level FlightAware ADS-B
03:31PM 41.4591 -114.1770 69° East 477 549 35,000  Level FlightAware ADS-B
03:32PM 41.4911 -114.0640 69° East 476 548 35,000  Level FlightAware ADS-B
03:32PM 41.5143 -113.9820 69° East 476 548 35,000  Level FlightAware ADS-B
03:33PM 41.5379 -113.8980 69° East 476 548 35,000  Level FlightAware ADS-B
03:33PM 41.5638 -113.8060 69° East 476 548 35,000  Level FlightAware ADS-B
03:34PM 41.5868 -113.7230 70° East 477 549 35,000  Level FlightAware ADS-B
03:34PM 41.6099 -113.6400 70° East 476 548 35,000  Level FlightAware ADS-B
03:35PM 41.6329 -113.5570 70° East 476 548 35,000  Level FlightAware ADS-B
03:35PM 41.6560 -113.4740 70° East 475 547 35,000  Level FlightAware ADS-B
03:36PM 41.6791 -113.3900 70° East 475 547 35,000  Level FlightAware ADS-B
03:37PM 41.7179 -113.2480 70° East 476 548 35,000  Level FlightAware ADS-B
03:37PM 41.7503 -113.1300 70° East 477 549 35,000  Level FlightAware ADS-B
03:38PM 41.7745 -113.0410 70° East 477 549 35,000  Level FlightAware ADS-B
03:38PM 41.8012 -112.9420 70° East 476 548 35,000  Level FlightAware ADS-B
03:39PM 41.8237 -112.8580 70° East 476 548 35,000  Level FlightAware ADS-B
03:39PM 41.8483 -112.7670 70° East 477 549 35,000  Level FlightAware ADS-B
03:40PM 41.8768 -112.6610 70° East 478 550 35,000  Level FlightAware ADS-B
03:41PM 41.9038 -112.5590 70° East 478 550 35,000  Level FlightAware ADS-B
03:41PM 41.9274 -112.4700 70° East 478 550 35,000  Level FlightAware ADS-B
03:42PM 41.9532 -112.3730 70° East 477 549 35,000  Level FlightAware ADS-B
03:42PM 41.9788 -112.2760 70° East 478 550 35,000  Level FlightAware ADS-B
03:43PM 42.0108 -112.1540 71° East 479 551 35,000  Level FlightAware ADS-B
03:44PM 42.0521 -111.9950 71° East 479 551 35,000  Level FlightAware ADS-B
03:45PM 42.0757 -111.9040 71° East 479 551 35,000  Level FlightAware ADS-B
03:46PM 42.1356 -111.6710 71° East 480 552 35,000  Level FlightAware ADS-B
03:47PM 42.1660 -111.5530 71° East 480 552 35,000  Level FlightAware ADS-B
03:47PM 42.1884 -111.4650 71° East 480 552 35,000  Level FlightAware ADS-B
03:48PM 42.2113 -111.3740 71° East 483 556 35,000  Level FlightAware ADS-B
03:49PM 42.2589 -111.1819 71° East 483 556 35,000  Level Salt Lake Center
03:50PM 42.3019 -111.0108 71° East 483 556 35,000  Level Salt Lake Center
03:51PM 42.3458 -110.8292 72° East 481 554 35,000  Level Salt Lake Center
03:52PM 42.3881 -110.6633 71° East 486 559 35,000  Level Salt Lake Center
03:53PM 42.4289 -110.4992 71° East 483 556 35,000  Level Salt Lake Center
03:54PM 42.4750 -110.3039 72° East 485 558 35,000  Level Salt Lake Center
03:55PM 42.5167 -110.1367 71° East 488 562 35,100 660 Climbing Salt Lake Center
03:56PM 42.5631 -109.9403 72° East 490 564 36,400 900 Climbing Salt Lake Center
03:57PM 42.6039 -109.7736 72° East 487 560 37,000 240 Climbing Salt Lake Center
03:58PM 42.6489 -109.5767 73° East 488 562 37,000  Level Salt Lake Center
03:59PM 42.6875 -109.4108 72° East 484 557 37,000  Level Salt Lake Center
04:00PM 42.7339 -109.2147 72° East 486 559 37,000  Level Salt Lake Center
04:01PM 42.7719 -109.0492 73° East 481 554 37,000  Level Salt Lake Center
04:02PM 42.8164 -108.8542 73° East 482 555 37,000  Level Salt Lake Center
04:03PM 42.8558 -108.6842 72° East 488 562 37,000  Level Salt Lake Center
04:04PM 42.8931 -108.5139 73° East 490 564 37,000  Level Salt Lake Center
04:05PM 42.9375 -108.3142 73° East 493 567 37,000  Level Salt Lake Center
04:06PM 42.9756 -108.1414 73° East 497 572 37,000  Level Salt Lake Center
04:08PM 43.0200 -107.9378 73° East 499 574 37,000  Level Salt Lake Center
04:09PM 43.0583 -107.7647 73° East 498 573 37,000  Level Salt Lake Center
04:10PM 43.1019 -107.5619 74° East 497 572 37,000  Level Salt Lake Center
04:11PM 43.1381 -107.3881 74° East 497 572 37,000  Level Salt Lake Center
04:12PM 43.1772 -107.2000 74° East 499 574 37,000  Level Salt Lake Center
04:13PM 43.2197 -106.9978 74° East 496 571 37,000  Level Salt Lake Center
04:14PM 43.2564 -106.8228 74° East 496 571 37,000  Level Salt Lake Center
04:14PM 43.2789 -106.7053 75° East 497 572 37,000  Level Denver Center
04:15PM 43.3142 -106.5294 75° East 498 573 37,000  Level Denver Center
04:16PM 43.3506 -106.3542 74° East 498 573 37,000  Level Denver Center
04:17PM 43.3917 -106.1475 75° East 501 577 37,000  Level Denver Center
04:18PM 43.4264 -105.9692 75° East 504 580 37,000  Level Denver Center
04:19PM 43.4669 -105.7614 75° East 503 579 37,000  Level Denver Center
04:20PM 43.5022 -105.5811 75° East 507 583 37,000  Level Denver Center
04:21PM 43.5431 -105.3703 75° East 508 585 37,000  Level Denver Center
04:22PM 43.5778 -105.1892 75° East 509 586 37,000  Level Denver Center
04:24PM 43.6114 -105.0067 76° East 510 587 37,000  Level Denver Center
04:25PM 43.6511 -104.7925 76° East 512 589 37,000  Level Denver Center
04:26PM 43.6858 -104.6075 75° East 515 593 37,000  Level Denver Center
04:27PM 43.7250 -104.3897 76° East 518 596 37,000  Level Denver Center
04:28PM 43.7597 -104.2081 75° East 517 595 37,000  Level Denver Center
04:29PM 43.7917 -104.0211 77° East 518 596 37,000  Level Denver Center
04:30PM 43.8325 -103.8031 75° East 522 601 37,000  Level Denver Center
04:31PM 43.8650 -103.6139 77° East 524 603 37,000  Level Denver Center
04:32PM 43.9025 -103.3917 77° East 529 609 37,000  Level Denver Center
04:33PM 43.9356 -103.2039 76° East 526 605 37,000  Level Denver Center
04:34PM 43.9717 -102.9817 77° East 527 606 37,000  Level Denver Center
04:35PM 44.0058 -102.7778 77° East 527 606 37,000  Level Denver Center
04:36PM 44.0314 -102.6211 77° East 524 603 37,000  Level Denver Center
04:37PM 44.0694 -102.3856 77° East 522 601 37,000  Level Denver Center
04:38PM 44.1056 -102.1494 78° East 522 601 37,000  Level Denver Center
04:39PM 44.1364 -101.9544 78° East 518 596 37,000  Level Denver Center
04:40PM 44.1658 -101.7583 78° East 518 596 37,000  Level Denver Center
04:41PM 44.2011 -101.5231 78° East 519 597 37,000  Level Denver Center
04:42PM 44.2311 -101.3258 78° East 520 598 37,000  Level Denver Center
04:43PM 44.2608 -101.1289 78° East 521 600 37,000  Level Denver Center
04:44PM 44.2900 -100.9319 78° East 521 600 37,000  Level Denver Center
04:46PM 44.3258 -100.6989 78° East 521 600 37,000  Level Minneapolis Center
04:47PM 44.3606 -100.4622 78° East 521 600 37,000  Level Minneapolis Center
04:48PM 44.3892 -100.2633 79° East 524 603 37,000  Level Minneapolis Center
04:49PM 44.4228 -100.0258 79° East 523 602 37,000  Level Minneapolis Center
04:50PM 44.4497 -99.8267 79° East 524 603 37,000  Level Minneapolis Center
04:51PM 44.4772 -99.6269 79° East 526 605 37,000  Level Minneapolis Center
04:52PM 44.5042 -99.4281 79° East 525 604 37,000  Level Minneapolis Center
04:53PM 44.5308 -99.2281 79° East 526 605 37,000  Level Minneapolis Center
04:54PM 44.5617 -98.9878 80° East 526 605 37,000  Level Minneapolis Center
04:55PM 44.5881 -98.7869 79° East 526 605 37,000  Level Minneapolis Center
04:56PM 44.6142 -98.5869 80° East 525 604 37,000  Level Minneapolis Center
04:57PM 44.6381 -98.3875 80° East 522 601 37,000  Level Minneapolis Center
04:58PM 44.6667 -98.1767 79° East 522 601 37,000  Level Minneapolis Center
04:59PM 44.6900 -97.9772 81° East 518 596 37,000  Level Minneapolis Center
05:00PM 44.7192 -97.7381 80° East 518 596 37,000  Level Minneapolis Center
05:01PM 44.7408 -97.5411 81° East 512 589 37,000  Level Minneapolis Center
05:02PM 44.7625 -97.3433 81° East 512 589 37,000  Level Minneapolis Center
05:03PM 44.7864 -97.1461 80° East 511 588 37,000  Level Minneapolis Center
05:04PM 44.8081 -96.9497 81° East 509 586 37,000  Level Minneapolis Center
05:05PM 44.8297 -96.7567 81° East 502 578 37,000  Level Minneapolis Center
05:06PM 44.8544 -96.5242 81° East 500 575 37,000  Level Minneapolis Center
05:08PM 44.8750 -96.3322 81° East 495 570 37,000  Level Minneapolis Center
05:09PM 44.8953 -96.1408 81° East 492 566 37,000  Level Minneapolis Center
05:10PM 44.9150 -95.9531 81° East 485 558 37,000  Level Minneapolis Center
05:11PM 44.9331 -95.7664 82° East 481 554 37,000  Level Minneapolis Center
05:12PM 44.9519 -95.5794 82° East 480 552 37,000  Level Minneapolis Center
05:13PM 44.9714 -95.3889 82° East 488 562 37,000  Level Minneapolis Center
05:14PM 44.9931 -95.1569 82° East 496 571 37,000  Level Minneapolis Center
05:15PM 45.0117 -94.9603 82° East 503 579 37,000  Level Minneapolis Center
05:16PM 45.0292 -94.7642 83° East 504 580 37,000  Level Minneapolis Center
05:17PM 45.0461 -94.5814 82° East 505 581 37,000  Level Minneapolis Center
05:18PM 45.0664 -94.3467 83° East 503 579 37,000  Level Minneapolis Center
05:19PM 45.0822 -94.1539 83° East 495 570 37,000  Level Minneapolis Center
05:25PM 44.8270 -93.2650 83° East 428 493 37,000  Level FlightAware
05:25PM 44.7870 -93.1490 116° Southeast 430 495 37,000  Level FlightAware
05:26PM 44.7240 -92.9660 116° Southeast 433 498 37,000  Level FlightAware
05:27PM 44.6960 -92.8810 115° Southeast 432 497 37,000  Level FlightAware
05:28PM 44.6530 -92.7600 117° Southeast 437 503 37,000  Level FlightAware
05:29PM 44.6230 -92.6730 116° Southeast 437 503 37,000  Level FlightAware
05:29PM 44.5880 -92.5740 116° Southeast 437 503 37,000  Level FlightAware
05:30PM 44.5610 -92.4960 116° Southeast 437 503 37,000  Level FlightAware
05:31PM 44.5010 -92.3280 117° Southeast 444 511 37,000  Level FlightAware
05:31PM 44.4620 -92.2180 116° Southeast 444 511 37,000  Level FlightAware
05:32PM 44.4230 -92.1070 116° Southeast 444 511 37,000  Level FlightAware
05:33PM 44.3850 -92.0020 117° Southeast 443 510 37,000  Level FlightAware
05:33PM 44.3480 -91.8970 116° Southeast 444 511 37,000  Level FlightAware
05:34PM 44.3070 -91.7850 117° Southeast 443 510 37,000  Level FlightAware
05:35PM 44.2720 -91.6870 116° Southeast 441 507 37,000  Level FlightAware
05:36PM 44.2330 -91.5790 117° Southeast 439 505 37,000  Level FlightAware
05:36PM 44.1910 -91.4640 117° Southeast 437 503 37,000  Level FlightAware
05:37PM 44.1550 -91.3660 117° Southeast 436 502 37,000  Level FlightAware
05:38PM 44.1150 -91.2570 117° Southeast 434 499 37,000  Level FlightAware
05:38PM 44.0780 -91.1570 117° Southeast 432 497 37,000  Level FlightAware
05:39PM 44.0380 -91.0490 117° Southeast 432 497 37,000  Level FlightAware
05:40PM 44.0020 -90.9500 117° Southeast 432 497 37,000  Level FlightAware
05:40PM 43.9640 -90.8480 117° Southeast 432 497 37,000  Level FlightAware
05:41PM 43.9230 -90.7410 118° Southeast 433 498 37,000  Level FlightAware
05:42PM 43.8900 -90.6500 117° Southeast 435 501 37,000  Level FlightAware
05:43PM 43.8460 -90.5340 118° Southeast 435 501 37,000  Level FlightAware
05:43PM 43.8080 -90.4340 118° Southeast 436 502 37,000  Level FlightAware
05:44PM 43.7670 -90.3250 117° Southeast 435 501 37,000  Level FlightAware
05:45PM 43.7290 -90.2270 118° Southeast 436 502 37,000  Level FlightAware
05:45PM 43.6880 -90.1190 118° Southeast 436 502 37,000  Level FlightAware
05:46PM 43.6520 -90.0250 118° Southeast 435 501 37,000  Level FlightAware
05:47PM 43.6090 -89.9130 118° Southeast 434 499 37,000  Level FlightAware
05:47PM 43.5690 -89.8100 118° Southeast 436 502 37,000  Level FlightAware
05:48PM 43.5410 -89.6940 108° East 443 510 37,000  Level FlightAware
05:49PM 43.5200 -89.5870 105° East 444 511 37,000  Level FlightAware
05:50PM 43.5020 -89.4830 103° East 444 511 37,000  Level FlightAware
05:50PM 43.4810 -89.3600 103° East 443 510 37,000 360 Level FlightAware
05:51PM 43.4620 -89.2460 103° East 438 504 37,600 1,020 Climbing FlightAware
05:52PM 43.4420 -89.1290 103° East 433 498 38,500 900 Climbing FlightAware
05:52PM 43.4220 -89.0140 103° East 437 503 38,900 360 Climbing FlightAware
05:53PM 43.4020 -88.9050 104° East 436 502 39,000 60 Climbing FlightAware
05:54PM 43.3830 -88.7930 103° East 439 505 39,000  Level FlightAware
05:54PM 43.3610 -88.6730 104° East 446 513 39,000  Level FlightAware
05:55PM 43.3400 -88.5570 104° East 446 513 39,000  Level FlightAware
05:56PM 43.3200 -88.4480 104° East 446 513 39,000  Level FlightAware
05:57PM 43.2990 -88.3280 103° East 446 513 39,000  Level FlightAware
05:57PM 43.2780 -88.2160 104° East 448 516 39,000  Level FlightAware
05:58PM 43.2550 -88.0910 104° East 446 513 39,000  Level FlightAware
05:59PM 43.2350 -87.9840 104° East 444 511 39,000  Level FlightAware
05:59PM 43.2130 -87.8670 104° East 443 510 39,000  Level FlightAware
06:00PM 43.1920 -87.7540 104° East 441 507 39,000  Level FlightAware
06:01PM 43.1710 -87.6410 104° East 441 507 39,000  Level FlightAware
06:01PM 43.1500 -87.5330 105° East 442 509 39,000  Level FlightAware
06:02PM 43.1270 -87.4130 105° East 438 504 39,000  Level FlightAware
06:03PM 43.1080 -87.3120 104° East 436 502 39,000  Level FlightAware
06:04PM 43.0770 -87.1550 105° East 430 495 39,000  Level FlightAware
06:04PM 43.0570 -87.0530 105° East 429 494 39,000  Level FlightAware
06:05PM 43.0340 -86.9350 105° East 427 491 39,000  Level FlightAware
06:06PM 43.0130 -86.8250 105° East 427 491 39,000  Level FlightAware
06:07PM 42.9910 -86.7150 105° East 427 491 39,000  Level FlightAware
06:07PM 42.9720 -86.6190 105° East 427 491 39,000  Level FlightAware
06:08PM 42.9480 -86.5020 106° East 428 493 39,000  Level FlightAware
06:09PM 42.9260 -86.3930 105° East 428 493 39,000  Level FlightAware
06:09PM 42.9030 -86.2800 105° East 428 493 39,000  Level FlightAware
06:10PM 42.8820 -86.1730 105° East 428 493 39,000  Level FlightAware
06:11PM 42.8520 -86.0270 106° East 428 493 39,000  Level FlightAware
06:12PM 42.8210 -85.8790 106° East 429 494 39,000  Level FlightAware
06:13PM 42.8000 -85.7760 105° East 430 495 39,000  Level FlightAware
06:13PM 42.7770 -85.6660 106° East 431 496 39,000  Level FlightAware
06:14PM 42.7520 -85.5500 106° East 432 497 39,000  Level FlightAware
06:15PM 42.7300 -85.4460 106° East 432 497 39,000  Level FlightAware
06:15PM 42.7070 -85.3360 106° East 432 497 39,000  Level FlightAware
06:16PM 42.6830 -85.2240 106° East 434 499 39,000  Level FlightAware
06:17PM 42.6660 -85.1190 102° East 435 501 39,000  Level FlightAware
06:18PM 42.6520 -84.9990 99° East 435 501 39,000  Level FlightAware
06:18PM 42.6420 -84.9040 98° East 435 501 39,000  Level FlightAware
06:19PM 42.6300 -84.7950 98° East 435 501 39,000  Level FlightAware
06:20PM 42.6180 -84.6770 98° East 436 502 39,000  Level FlightAware
06:20PM 42.6100 -84.5740 96° East 437 503 39,000  Level FlightAware
06:21PM 42.6030 -84.4590 95° East 439 505 39,000  Level FlightAware
06:22PM 42.5970 -84.3440 94° East 440 506 39,000  Level FlightAware
06:22PM 42.5910 -84.2270 94° East 441 507 39,000  Level FlightAware
06:23PM 42.5840 -84.1050 94° East 442 509 39,000  Level FlightAware
06:24PM 42.5790 -84.0080 94° East 443 510 39,000  Level FlightAware
06:24PM 42.5720 -83.8830 94° East 444 511 39,000  Level FlightAware
06:25PM 42.5640 -83.7600 95° East 444 511 39,000  Level FlightAware
06:26PM 42.5580 -83.6590 95° East 445 512 39,000  Level FlightAware
06:27PM 42.5500 -83.5290 95° East 445 512 39,000  Level FlightAware
06:27PM 42.5430 -83.4120 95° East 446 513 39,000  Level FlightAware
06:28PM 42.5360 -83.3050 95° East 446 513 39,000  Level FlightAware
06:29PM 42.5280 -83.1760 95° East 445 512 39,000  Level FlightAware
06:29PM 42.5200 -83.0570 95° East 444 511 39,000  Level FlightAware
06:30PM 42.5120 -82.9400 95° East 444 511 39,000  Level FlightAware
06:31PM 42.5040 -82.8260 95° East 442 509 39,000  Level FlightAware
06:31PM 42.4970 -82.7200 95° East 443 510 39,000  Level FlightAware
06:32PM 42.4880 -82.5920 95° East 443 510 39,000  Level FlightAware
06:33PM 42.4810 -82.4910 95° East 445 512 39,000  Level FlightAware
06:34PM 42.4730 -82.3790 95° East 446 513 39,000  Level FlightAware
06:34PM 42.4640 -82.2610 96° East 446 513 39,000  Level FlightAware
06:35PM 42.4560 -82.1550 96° East 446 513 39,000  Level FlightAware
06:36PM 42.4480 -82.0380 95° East 445 512 39,000  Level FlightAware
06:36PM 42.4380 -81.9070 96° East 445 512 39,000  Level FlightAware
06:37PM 42.4290 -81.8020 97° East 446 513 39,000  Level FlightAware
06:38PM 42.4210 -81.6950 96° East 446 513 39,000  Level FlightAware
06:39PM 42.4070 -81.5180 96° East 447 514 39,000  Level FlightAware
06:39PM 42.3980 -81.4050 96° East 449 517 39,000  Level FlightAware
06:40PM 42.3880 -81.2860 96° East 448 516 39,000  Level FlightAware
06:41PM 42.3790 -81.1820 97° East 448 516 39,000  Level FlightAware
06:41PM 42.3700 -81.0710 96° East 448 516 39,000  Level FlightAware
06:42PM 42.3520 -80.8840 97° East 446 513 39,000  Level FlightAware
06:43PM 42.3360 -80.7750 101° East 446 513 39,000  Level FlightAware
06:44PM 42.3170 -80.6580 102° East 445 512 39,000  Level FlightAware
06:45PM 42.2980 -80.5430 103° East 444 511 39,000  Level FlightAware
06:45PM 42.2790 -80.4310 103° East 444 511 39,000  Level FlightAware
06:46PM 42.2600 -80.3140 102° East 444 511 39,000  Level FlightAware
06:47PM 42.2430 -80.2120 103° East 444 511 39,000  Level FlightAware
06:47PM 42.2220 -80.0900 103° East 445 512 39,000  Level FlightAware
06:48PM 42.2050 -79.9930 103° East 446 513 39,000  Level FlightAware
06:49PM 42.1850 -79.8750 103° East 446 513 39,000  Level FlightAware
06:49PM 42.1630 -79.7490 103° East 445 512 39,000  Level FlightAware
06:50PM 42.1430 -79.6350 103° East 446 513 39,000  Level FlightAware
06:51PM 42.1240 -79.5260 103° East 446 513 39,000  Level FlightAware
06:51PM 42.1050 -79.4150 103° East 446 513 39,000  Level FlightAware
06:52PM 42.0850 -79.3040 104° East 445 512 39,000  Level FlightAware
06:53PM 42.0630 -79.1790 103° East 445 512 39,000  Level FlightAware
06:54PM 42.0440 -79.0740 104° East 446 513 39,000  Level FlightAware
06:54PM 42.0220 -78.9560 104° East 446 513 39,000  Level FlightAware
06:55PM 42.0010 -78.8370 103° East 445 512 39,000  Level FlightAware
06:56PM 41.9810 -78.7280 104° East 446 513 39,000  Level FlightAware
06:56PM 41.9620 -78.6240 104° East 446 513 39,000  Level FlightAware
06:57PM 41.9380 -78.4990 104° East 446 513 39,000  Level FlightAware
06:58PM 41.9190 -78.3950 104° East 447 514 39,000  Level FlightAware
06:59PM 41.8960 -78.2730 104° East 448 516 39,000  Level FlightAware
06:59PM 41.8760 -78.1670 104° East 447 514 39,000  Level FlightAware
07:00PM 41.8550 -78.0540 104° East 447 514 39,000  Level FlightAware
07:01PM 41.8340 -77.9460 105° East 447 514 39,000  Level FlightAware
07:01PM 41.8120 -77.8290 104° East 448 516 39,000  Level FlightAware
07:02PM 41.7910 -77.7240 105° East 447 514 39,000  Level FlightAware
07:03PM 41.7680 -77.6050 104° East 446 513 39,000  Level FlightAware
07:03PM 41.7470 -77.4970 105° East 444 511 39,000  Level FlightAware
07:04PM 41.7240 -77.3800 105° East 440 506 39,000  Level FlightAware
07:05PM 41.7040 -77.2780 105° East 439 505 39,000  Level FlightAware
07:05PM 41.6920 -77.2179 105° East 440 506 39,000  Level FlightAware ADS-B
07:06PM 41.6724 -77.1294 106° East 440 506 39,000  Level FlightAware ADS-B
07:06PM 41.6469 -77.0329 109° East 436 502 39,000  Level FlightAware ADS-B
07:07PM 41.6245 -76.9507 110° East 435 501 39,000 -300 Level FlightAware ADS-B
07:07PM 41.6020 -76.8685 110° East 435 501 38,700 -720 Descending FlightAware ADS-B
07:08PM 41.5810 -76.7921 110° East 437 503 38,300 -660 Descending FlightAware ADS-B
07:09PM 41.5576 -76.7064 110° East 438 504 38,000 -660 Descending FlightAware ADS-B
07:09PM 41.5363 -76.6289 110° East 439 505 37,600 -720 Descending FlightAware ADS-B
07:10PM 41.5147 -76.5503 110° East 441 507 37,300 -600 Descending FlightAware ADS-B
07:10PM 41.4929 -76.4716 110° East 442 509 37,000 -780 Descending FlightAware ADS-B
07:11PM 41.4693 -76.3866 110° East 445 512 36,500 -900 Descending FlightAware ADS-B
07:11PM 41.4474 -76.3079 110° East 450 518 36,100 -780 Descending FlightAware ADS-B
07:12PM 41.4249 -76.2273 110° East 454 522 35,700 -900 Descending FlightAware ADS-B
07:12PM 41.4019 -76.1447 110° East 461 531 35,200 -1,080 Descending FlightAware ADS-B
07:13PM 41.3787 -76.0625 111° Southeast 467 537 34,600 -1,080 Descending FlightAware ADS-B
07:13PM 41.3532 -75.9720 111° Southeast 472 543 34,100 -720 Descending FlightAware ADS-B
07:14PM 41.3275 -75.8813 111° Southeast 474 545 33,800 -1,200 Descending FlightAware ADS-B
07:14PM 41.3033 -75.7960 111° Southeast 473 544 32,800 -2,640 Descending FlightAware ADS-B
07:15PM 41.2789 -75.7119 111° Southeast 480 552 31,100 -3,600 Descending FlightAware ADS-B
07:15PM 41.2526 -75.6285 113° Southeast 486 559 29,200 -3,780 Descending FlightAware ADS-B
07:16PM 41.2246 -75.5441 114° Southeast 491 565 27,300 -3,660 Descending FlightAware ADS-B
07:16PM 41.1969 -75.4612 114° Southeast 492 566 25,500 -3,360 Descending FlightAware ADS-B
07:17PM 41.1690 -75.3785 114° Southeast 484 557 23,900 -2,400 Descending FlightAware ADS-B
07:17PM 41.1410 -75.2955 114° Southeast 480 552 23,100 -900 Descending FlightAware ADS-B
07:18PM 41.1132 -75.2135 114° Southeast 474 545 23,000 -120 Descending FlightAware ADS-B
07:18PM 41.0857 -75.1323 114° Southeast 477 549 23,000  Level FlightAware ADS-B
07:19PM 41.0553 -75.0428 114° Southeast 478 550 23,000  Level FlightAware ADS-B
07:19PM 41.0281 -74.9630 114° Southeast 477 549 23,000 -360 Level FlightAware ADS-B
07:20PM 41.0089 -74.9044 113° Southeast 474 545 22,700 -1,560 Descending FlightAware ADS-B
07:20PM 40.9951 -74.8455 107° East 474 545 21,900 -2,460 Descending FlightAware ADS-B
07:20PM 40.9943 -74.8414 104° East 473 544 21,800 -2,040 Descending FlightAware ADS-B
07:20PM 40.9878 -74.7944 100° East 470 541 21,300 -1,920 Descending FlightAware ADS-B
07:21PM 40.9863 -74.7800 98° East 468 539 21,100 -1,020 Descending FlightAware ADS-B
07:21PM 40.9784 -74.7070 98° East 467 537 20,800 -600 Descending FlightAware ADS-B
07:21PM 40.9760 -74.6853 98° East 467 537 20,800 -420 Level FlightAware ADS-B
07:21PM 40.9692 -74.6225 98° East 466 536 20,600 -540 Descending FlightAware ADS-B
07:22PM 40.9655 -74.5893 98° East 466 536 20,500 -600 Descending FlightAware ADS-B
07:22PM 40.9595 -74.5343 98° East 467 537 20,300 -600 Descending FlightAware ADS-B
07:23PM 40.9493 -74.4417 98° East 468 539 20,000 -600 Descending FlightAware ADS-B
07:23PM 40.9399 -74.3562 98° East 454 522 19,700 -540 Descending FlightAware ADS-B
07:23PM 40.9385 -74.3442 99° East 451 519 19,700 -420 Level FlightAware ADS-B
07:24PM 40.9308 -74.2754 98° East 425 489 19,500 -600 Descending FlightAware ADS-B
07:24PM 40.9291 -74.2597 98° East 432 497 19,400 -600 Descending FlightAware ADS-B
07:24PM 40.9223 -74.2000 99° East 394 453 19,200 -600 Descending FlightAware ADS-B
07:24PM 40.9199 -74.1797 99° East 387 445 19,100 -480 Descending FlightAware ADS-B
07:24PM 40.9184 -74.1701 102° East 382 440 19,100 -840 Level FlightAware ADS-B
07:24PM 40.9136 -74.1470 105° East 377 434 18,900 -1,800 Descending FlightAware ADS-B
07:25PM 40.9093 -74.1311 110° East 374 430 18,600 -2,280 Descending FlightAware ADS-B
07:25PM 40.9089 -74.1300 116° Southeast 374 430 18,600 -1,200 Level FlightAware ADS-B
07:25PM 40.9062 -74.1216 113° Southeast 374 430 18,500 -1,740 Descending FlightAware ADS-B
07:25PM 40.9035 -74.1142 116° Southeast 373 429 18,400 -2,820 Descending FlightAware ADS-B
07:25PM 40.8957 -74.0960 120° Southeast 374 430 17,900 -2,760 Descending FlightAware ADS-B
07:25PM 40.8654 -74.0332 123° Southeast 365 420 16,500 -1,860 Descending FlightAware ADS-B
07:26PM 40.8386 -73.9792 123° Southeast 341 392 16,000 -840 Descending FlightAware ADS-B
07:26PM 40.8332 -73.9684 123° Southeast 334 384 16,000  Level FlightAware ADS-B
07:27PM 40.8103 -73.9225 123° Southeast 324 373 16,000 -600 Level FlightAware ADS-B
07:27PM 40.7810 -73.8633 123° Southeast 318 366 15,400 -1,260 Descending FlightAware ADS-B
07:27PM 40.7682 -73.8351 121° Southeast 319 367 14,900 -1,920 Descending FlightAware ADS-B
07:28PM 40.7591 -73.8105 116° Southeast 317 365 14,400 -2,040 Descending FlightAware ADS-B
07:28PM 40.7555 -73.8000 114° Southeast 316 364 14,200 -1,680 Descending FlightAware ADS-B
07:28PM 40.7372 -73.7458 114° Southeast 311 358 13,400 -900 Descending FlightAware ADS-B
07:29PM 40.7080 -73.6580 114° Southeast 311 358 13,000 -300 Descending FlightAware
07:30PM 40.6854 -73.5920 114° Southeast 309 356 13,000 -120 Level FlightAware ADS-B
07:30PM 40.6672 -73.5383 114° Southeast 309 356 12,900 -600 Descending FlightAware ADS-B
07:30PM 40.6600 -73.5229 122° Southeast 306 352 12,600 -2,220 Descending FlightAware ADS-B
07:31PM 40.6343 -73.4996 145° Southeast 292 336 11,700 -2,400 Descending FlightAware ADS-B
07:31PM 40.6282 -73.4968 161° South 291 335 11,500 -2,400 Descending FlightAware ADS-B
07:31PM 40.5883 -73.4812 163° South 291 335 10,300 -2,340 Descending FlightAware ADS-B
07:32PM 40.5779 -73.4781 167° South 290 334 10,000 -2,160 Descending FlightAware ADS-B
07:32PM 40.5664 -73.4777 178° South 286 329 9,700 -2,040 Descending FlightAware ADS-B
07:32PM 40.5625 -73.4784 188° South 285 328 9,600 -1,500 Descending FlightAware ADS-B
07:32PM 40.5558 -73.4806 194° South 280 322 9,500 -1,440 Descending FlightAware ADS-B
07:32PM 40.5422 -73.4875 201° Southwest 274 315 9,200 -1,500 Descending FlightAware ADS-B
07:32PM 40.5197 -73.5014 205° Southwest 268 308 8,700 -1,680 Descending FlightAware ADS-B
07:33PM 40.5014 -73.5129 206° Southwest 266 306 8,200 -1,740 Descending FlightAware ADS-B
07:33PM 40.4799 -73.5264 206° Southwest 267 307 7,700 -1,560 Descending FlightAware ADS-B
07:33PM 40.4620 -73.5378 206° Southwest 267 307 7,300 -1,320 Descending FlightAware ADS-B
07:33PM 40.4547 -73.5432 209° Southwest 266 306 7,200 -1,440 Descending FlightAware ADS-B
07:33PM 40.4493 -73.5488 218° Southwest 266 306 7,000 -1,200 Descending FlightAware ADS-B
07:34PM 40.4417 -73.5605 230° Southwest 264 304 6,900 -420 Descending FlightAware ADS-B
07:34PM 40.4287 -73.5870 237° Southwest 263 303 6,800 -960 Descending FlightAware ADS-B
07:34PM 40.4176 -73.6103 238° Southwest 256 295 6,300 -2,040 Descending FlightAware ADS-B
07:35PM 40.3996 -73.6590 244° Southwest 256 295 5,000 -2,220 Descending FlightAware ADS-B
07:35PM 40.3989 -73.6688 265° West 254 292 4,800 -1,860 Descending FlightAware ADS-B
07:35PM 40.3987 -73.6786 268° West 253 291 4,600 -2,040 Descending FlightAware ADS-B
07:36PM 40.3990 -73.7340 270° West 251 289 3,300 -1,620 Descending FlightAware
07:36PM 40.3998 -73.7842 271° West 251 289 2,800 -660 Descending FlightAware ADS-B
07:36PM 40.4001 -73.8110 271° West 251 289 2,800  Level FlightAware ADS-B
07:37PM 40.4027 -73.8494 275° West 253 291 2,800 120 Level FlightAware ADS-B
07:37PM 40.4093 -73.8668 296° West 259 298 2,900  Climbing FlightAware ADS-B
07:37PM 40.4189 -73.8875 301° West 261 300 2,800 -180 Descending FlightAware ADS-B
07:38PM 40.4310 -73.9138 301° West 255 293 2,800 120 Level FlightAware ADS-B
07:38PM 40.4404 -73.9343 301° West 225 259 2,900 120 Climbing FlightAware ADS-B
07:38PM 40.4494 -73.9531 302° West 218 251 2,900  Level FlightAware ADS-B
07:39PM 40.4665 -73.9697 324° Northwest 223 257 2,900 -240 Level FlightAware ADS-B
07:39PM 40.4790 -73.9744 344° North 236 272 2,800  Descending FlightAware ADS-B
07:39PM 40.5140 -73.9680 North 235 270 2,900  Climbing FlightAware
07:40PM 40.5310 -73.9610 17° North 238 274 2,800 -840 Descending FlightAware
07:40PM 40.5590 -73.9390 31° Northeast 223 257 2,300 -960 Descending FlightAware
07:41PM 40.5810 -73.9200 33° Northeast 186 214 1,900 -780 Descending FlightAware
07:41PM 40.5890 -73.9130 34° Northeast 170 196 1,800 -600 Descending FlightAware
07:41PM 40.6070 -73.8980 32° Northeast 157 181 1,500 -720 Descending FlightAware
07:42PM 40.6170 -73.8900 31° Northeast 159 183 1,300 -900 Descending FlightAware
07:42PM 40.6290 -73.8810 30° Northeast 157 181 1,000 -840 Descending FlightAware
07:42PM 40.6510 -73.8650 29° Northeast 159 183 600 -420 Descending FlightAware
07:43PM 40.6690 -73.8500 32° Northeast 159 183 600  Level FlightAware
07:43PM 40.6730 -73.8400 62° Northeast 149 171 600 -480 Level FlightAware
07:44PM 40.6690 -73.8160 102° East 130 150 300 -600 Descending FlightAware
07:44PM 40.6620 -73.8010 122° Southeast 126 145 100 -540 Descending FlightAware
07:45PM 40.6520 -73.7780 120° Southeast 125 144 -240 Descending FlightAware
07:45PM 40.6480 -73.7690 120° Southeast 29 33  Level FlightAware
07:46PM 40.6440 -73.7700 191° South 18 21  Level FlightAware
07:46PM 40.6440 -73.7710 270° West 17 20  Level FlightAware
07:46PM 40.6410 -73.7730 207° Southwest 21 24  Level FlightAware
07:47PM 40.6400 -73.7750 237° Southwest 21 24  Level FlightAware
07:47PM 40.6370 -73.7770 207° Southwest 16 18  Level FlightAware